GLD1974 LPPD-LPAZ
Flight info
| Callsign | GLD1974 |
|---|---|
| Flight time | 0h 27m |
| Altitude | 5000 |
| Route | VMG |
| Aircraft | C172/L-SFG/C |
Departure
| Time | 2026-05-06 16:41 |
|---|---|
| Airport | João Paulo II Airport (LPPD) |
Arrival
| Time | 2026-05-06 17:08 |
|---|---|
| Airport | Santa Maria Airport (LPAZ) |
| Time | Latitude | Longitude | Altitude | Speed | Heading |
|---|---|---|---|---|---|
| 2026-05-06 16:36 | 37.74133 | -25.70060 | 235 ft | 0 kts | 76° |
| 2026-05-06 16:38 | 37.74144 | -25.70048 | 234 ft | 9 kts | 15° |
| 2026-05-06 16:39 | 37.74189 | -25.69954 | 231 ft | 18 kts | 45° |
| 2026-05-06 16:39 | 37.74204 | -25.69783 | 227 ft | 23 kts | 108° |
| 2026-05-06 16:39 | 37.74145 | -25.69593 | 219 ft | 24 kts | 109° |
| 2026-05-06 16:39 | 37.74083 | -25.69413 | 214 ft | 18 kts | 132° |
| 2026-05-06 16:40 | 37.74084 | -25.69404 | 217 ft | 13 kts | 286° |
| 2026-05-06 16:40 | 37.74170 | -25.69672 | 224 ft | 51 kts | 293° |
| 2026-05-06 16:40 | 37.74352 | -25.70160 | 304 ft | 66 kts | 289° |
| 2026-05-06 16:40 | 37.74527 | -25.70699 | 434 ft | 68 kts | 282° |
| 2026-05-06 16:41 | 37.74672 | -25.71270 | 599 ft | 67 kts | 278° |
| 2026-05-06 16:41 | 37.74418 | -25.71645 | 786 ft | 76 kts | 179° |
| 2026-05-06 16:41 | 37.73936 | -25.71322 | 954 ft | 78 kts | 154° |
| 2026-05-06 16:41 | 37.73515 | -25.70902 | 1047 ft | 77 kts | 152° |
| 2026-05-06 16:42 | 37.73091 | -25.70491 | 1118 ft | 77 kts | 152° |
| 2026-05-06 16:42 | 37.72669 | -25.70086 | 1184 ft | 76 kts | 152° |
| 2026-05-06 16:42 | 37.72227 | -25.69652 | 1245 ft | 86 kts | 152° |
| 2026-05-06 16:42 | 37.71699 | -25.69189 | 1322 ft | 98 kts | 152° |
| 2026-05-06 16:43 | 37.71109 | -25.68681 | 1399 ft | 110 kts | 152° |
| 2026-05-06 16:43 | 37.70453 | -25.68098 | 1473 ft | 120 kts | 151° |
| 2026-05-06 16:43 | 37.69739 | -25.67498 | 1542 ft | 125 kts | 152° |
| 2026-05-06 16:43 | 37.68994 | -25.66889 | 1607 ft | 129 kts | 151° |
| 2026-05-06 16:44 | 37.68225 | -25.66296 | 1666 ft | 130 kts | 153° |
| 2026-05-06 16:44 | 37.67447 | -25.65690 | 1724 ft | 133 kts | 152° |
| 2026-05-06 16:44 | 37.66653 | -25.65062 | 1776 ft | 137 kts | 152° |
| 2026-05-06 16:44 | 37.66122 | -25.64620 | 1814 ft | 139 kts | 151° |
| 2026-05-06 16:45 | 37.65035 | -25.63724 | 1885 ft | 139 kts | 151° |
| 2026-05-06 16:45 | 37.64499 | -25.63285 | 1922 ft | 138 kts | 151° |
| 2026-05-06 16:45 | 37.63429 | -25.62442 | 1991 ft | 136 kts | 152° |
| 2026-05-06 16:45 | 37.62621 | -25.61816 | 1990 ft | 136 kts | 151° |
| 2026-05-06 16:46 | 37.62079 | -25.61391 | 1991 ft | 135 kts | 151° |
| 2026-05-06 16:46 | 37.61281 | -25.60763 | 1992 ft | 136 kts | 151° |
| 2026-05-06 16:46 | 37.60473 | -25.60147 | 1998 ft | 139 kts | 151° |
| 2026-05-06 16:46 | 37.59630 | -25.59510 | 2002 ft | 143 kts | 151° |
| 2026-05-06 16:47 | 37.58768 | -25.58865 | 1997 ft | 143 kts | 151° |
| 2026-05-06 16:47 | 37.57926 | -25.58225 | 1993 ft | 139 kts | 152° |
| 2026-05-06 16:47 | 37.57111 | -25.57576 | 1995 ft | 138 kts | 151° |
| 2026-05-06 16:47 | 37.56304 | -25.56933 | 1993 ft | 140 kts | 151° |
| 2026-05-06 16:48 | 37.55487 | -25.56271 | 1993 ft | 139 kts | 151° |
| 2026-05-06 16:48 | 37.54676 | -25.55612 | 1990 ft | 137 kts | 151° |
| 2026-05-06 16:48 | 37.53885 | -25.54954 | 1988 ft | 135 kts | 151° |
| 2026-05-06 16:48 | 37.53100 | -25.54303 | 1987 ft | 135 kts | 151° |
| 2026-05-06 16:49 | 37.52315 | -25.53660 | 1987 ft | 134 kts | 150° |
| 2026-05-06 16:49 | 37.51518 | -25.53025 | 1988 ft | 137 kts | 151° |
| 2026-05-06 16:49 | 37.50711 | -25.52362 | 1988 ft | 139 kts | 150° |
| 2026-05-06 16:49 | 37.49903 | -25.51702 | 1989 ft | 140 kts | 152° |
| 2026-05-06 16:50 | 37.49093 | -25.51008 | 1983 ft | 140 kts | 150° |
| 2026-05-06 16:50 | 37.48297 | -25.50317 | 1981 ft | 138 kts | 150° |
| 2026-05-06 16:50 | 37.47495 | -25.49648 | 1980 ft | 137 kts | 150° |
| 2026-05-06 16:50 | 37.46711 | -25.48995 | 1977 ft | 136 kts | 150° |
| 2026-05-06 16:51 | 37.45922 | -25.48336 | 1978 ft | 136 kts | 150° |
| 2026-05-06 16:51 | 37.45124 | -25.47679 | 1979 ft | 138 kts | 151° |
| 2026-05-06 16:51 | 37.44326 | -25.47002 | 1979 ft | 139 kts | 150° |
| 2026-05-06 16:51 | 37.43533 | -25.46328 | 1981 ft | 139 kts | 150° |
| 2026-05-06 16:52 | 37.42722 | -25.45659 | 1984 ft | 138 kts | 150° |
| 2026-05-06 16:52 | 37.41917 | -25.44991 | 1985 ft | 139 kts | 150° |
| 2026-05-06 16:52 | 37.41117 | -25.44329 | 1985 ft | 139 kts | 150° |
| 2026-05-06 16:52 | 37.40300 | -25.43655 | 1986 ft | 138 kts | 150° |
| 2026-05-06 16:53 | 37.39503 | -25.43005 | 1989 ft | 137 kts | 150° |
| 2026-05-06 16:53 | 37.38709 | -25.42359 | 1993 ft | 136 kts | 150° |
| 2026-05-06 16:53 | 37.37917 | -25.41710 | 1992 ft | 136 kts | 150° |
| 2026-05-06 16:53 | 37.37125 | -25.41054 | 1994 ft | 136 kts | 150° |
| 2026-05-06 16:54 | 37.36338 | -25.40380 | 1992 ft | 136 kts | 149° |
| 2026-05-06 16:54 | 37.35561 | -25.39726 | 1992 ft | 135 kts | 150° |
| 2026-05-06 16:54 | 37.34768 | -25.39072 | 2001 ft | 138 kts | 149° |
| 2026-05-06 16:54 | 37.33945 | -25.38406 | 1999 ft | 141 kts | 150° |
| 2026-05-06 16:55 | 37.33123 | -25.37746 | 2003 ft | 142 kts | 150° |
| 2026-05-06 16:55 | 37.32285 | -25.37066 | 2003 ft | 144 kts | 150° |
| 2026-05-06 16:55 | 37.31453 | -25.36368 | 2000 ft | 143 kts | 149° |
| 2026-05-06 16:55 | 37.30637 | -25.35667 | 2007 ft | 142 kts | 149° |
| 2026-05-06 16:56 | 37.29809 | -25.34964 | 2004 ft | 144 kts | 149° |
| 2026-05-06 16:56 | 37.28991 | -25.34276 | 1999 ft | 141 kts | 149° |
| 2026-05-06 16:56 | 37.28178 | -25.33595 | 2001 ft | 139 kts | 149° |
| 2026-05-06 16:56 | 37.27368 | -25.32923 | 2000 ft | 139 kts | 150° |
| 2026-05-06 16:57 | 37.26574 | -25.32245 | 1998 ft | 139 kts | 149° |
| 2026-05-06 16:57 | 37.25792 | -25.31567 | 1957 ft | 131 kts | 149° |
| 2026-05-06 16:57 | 37.25043 | -25.30904 | 1906 ft | 132 kts | 149° |
| 2026-05-06 16:57 | 37.24278 | -25.30224 | 1857 ft | 136 kts | 149° |
| 2026-05-06 16:58 | 37.23509 | -25.29549 | 1804 ft | 136 kts | 149° |
| 2026-05-06 16:58 | 37.22721 | -25.28881 | 1754 ft | 137 kts | 149° |
| 2026-05-06 16:58 | 37.21926 | -25.28211 | 1706 ft | 138 kts | 149° |
| 2026-05-06 16:58 | 37.21123 | -25.27539 | 1654 ft | 139 kts | 149° |
| 2026-05-06 16:59 | 37.20340 | -25.26869 | 1599 ft | 136 kts | 149° |
| 2026-05-06 16:59 | 37.19563 | -25.26209 | 1542 ft | 134 kts | 149° |
| 2026-05-06 16:59 | 37.18792 | -25.25543 | 1494 ft | 135 kts | 149° |
| 2026-05-06 16:59 | 37.18017 | -25.24872 | 1444 ft | 136 kts | 149° |
| 2026-05-06 17:00 | 37.17232 | -25.24207 | 1406 ft | 133 kts | 155° |
| 2026-05-06 17:00 | 37.16386 | -25.23887 | 1400 ft | 126 kts | 172° |
| 2026-05-06 17:00 | 37.15532 | -25.23677 | 1401 ft | 125 kts | 173° |
| 2026-05-06 17:00 | 37.14650 | -25.23475 | 1406 ft | 132 kts | 174° |
| 2026-05-06 17:01 | 37.13740 | -25.23272 | 1416 ft | 135 kts | 173° |
| 2026-05-06 17:01 | 37.12802 | -25.23062 | 1416 ft | 138 kts | 173° |
| 2026-05-06 17:01 | 37.11857 | -25.22843 | 1419 ft | 137 kts | 173° |
| 2026-05-06 17:01 | 37.10928 | -25.22627 | 1423 ft | 137 kts | 173° |
| 2026-05-06 17:02 | 37.10001 | -25.22409 | 1423 ft | 134 kts | 173° |
| 2026-05-06 17:02 | 37.09082 | -25.22198 | 1420 ft | 135 kts | 173° |
| 2026-05-06 17:02 | 37.08153 | -25.21977 | 1420 ft | 137 kts | 173° |
| 2026-05-06 17:02 | 37.07211 | -25.21762 | 1421 ft | 138 kts | 173° |
| 2026-05-06 17:03 | 37.06265 | -25.21535 | 1417 ft | 138 kts | 173° |
| 2026-05-06 17:03 | 37.05333 | -25.21318 | 1418 ft | 135 kts | 173° |
| 2026-05-06 17:03 | 37.04401 | -25.21105 | 1413 ft | 137 kts | 173° |
| 2026-05-06 17:03 | 37.03473 | -25.20877 | 1418 ft | 135 kts | 173° |
| 2026-05-06 17:04 | 37.02563 | -25.20643 | 1413 ft | 135 kts | 173° |
| 2026-05-06 17:04 | 37.01642 | -25.20411 | 1417 ft | 136 kts | 172° |
| 2026-05-06 17:04 | 37.00714 | -25.20184 | 1411 ft | 135 kts | 173° |
| 2026-05-06 17:04 | 36.99788 | -25.19966 | 1417 ft | 135 kts | 173° |
| 2026-05-06 17:05 | 36.98856 | -25.19749 | 1414 ft | 137 kts | 173° |
| 2026-05-06 17:05 | 36.97940 | -25.19534 | 1410 ft | 130 kts | 173° |
| 2026-05-06 17:05 | 36.97086 | -25.19334 | 1323 ft | 115 kts | 173° |
| 2026-05-06 17:05 | 36.96380 | -25.19152 | 1200 ft | 96 kts | 173° |
| 2026-05-06 17:06 | 36.95773 | -25.18983 | 1063 ft | 82 kts | 172° |
| 2026-05-06 17:06 | 36.95266 | -25.18832 | 929 ft | 73 kts | 170° |
| 2026-05-06 17:06 | 36.94782 | -25.18686 | 835 ft | 70 kts | 172° |
| 2026-05-06 17:06 | 36.94302 | -25.18533 | 743 ft | 74 kts | 162° |
| 2026-05-06 17:07 | 36.93974 | -25.18043 | 687 ft | 78 kts | 102° |
| 2026-05-06 17:07 | 36.93964 | -25.17375 | 604 ft | 76 kts | 77° |
| 2026-05-06 17:07 | 36.94222 | -25.16875 | 542 ft | 66 kts | 24° |
| 2026-05-06 17:07 | 36.94668 | -25.16666 | 500 ft | 71 kts | 7° |
| 2026-05-06 17:08 | 36.95155 | -25.16657 | 466 ft | 70 kts | 344° |
| 2026-05-06 17:08 | 36.95616 | -25.16754 | 379 ft | 67 kts | 345° |
| 2026-05-06 17:08 | 36.96079 | -25.16848 | 303 ft | 63 kts | 344° |
| 2026-05-06 17:08 | 36.96399 | -25.16907 | 297 ft | 21 kts | 355° |
| 2026-05-06 17:09 | 36.96491 | -25.16804 | 297 ft | 16 kts | 55° |
| 2026-05-06 17:09 | 36.96581 | -25.16770 | 298 ft | 13 kts | 352° |
| 2026-05-06 17:09 | 36.96663 | -25.16782 | 298 ft | 10 kts | 353° |
| 2026-05-06 17:09 | 36.96735 | -25.16796 | 298 ft | 14 kts | 351° |
| 2026-05-06 17:10 | 36.96866 | -25.16819 | 298 ft | 21 kts | 353° |
| 2026-05-06 17:10 | 36.96996 | -25.16819 | 301 ft | 18 kts | 45° |
| 2026-05-06 17:10 | 36.97042 | -25.16671 | 299 ft | 18 kts | 66° |
| 2026-05-06 17:10 | 36.97124 | -25.16567 | 298 ft | 16 kts | 354° |
| 2026-05-06 17:11 | 36.97143 | -25.16571 | 298 ft | 0 kts | 347° |